Time;durP1;ratioP1;P1;durP2;ratioP2;P2;SDS_P1;SDS_P2;PMS_P1;PMS_P2;Temp;Humidity;BMP_temperature;BMP_pressure;BME280_temperature;BME280_humidity;BME280_pressure;Samples;Min_cycle;Max_cycle;Signal;HPM_P1;HPM_P2
2022/09/12 00:02:24;;;;;;;20.37;15.70;;;12.00;99.90;;;;;;5005417;28;20229;-88
2022/09/12 00:04:50;;;;;;;20.60;16.50;;;12.10;99.90;;;;;;5005333;28;20212;-87
2022/09/12 00:07:16;;;;;;;21.80;16.17;;;11.80;99.90;;;;;;5005414;28;20186;-88
2022/09/12 00:09:42;;;;;;;19.80;15.85;;;11.70;99.90;;;;;;5006935;28;20211;-88
2022/09/12 00:12:07;;;;;;;21.35;16.25;;;12.30;99.90;;;;;;5005921;28;20735;-87
2022/09/12 00:14:34;;;;;;;17.25;14.95;;;11.90;99.90;;;;;;5005342;28;20206;-88
2022/09/12 00:17:00;;;;;;;18.50;14.27;;;12.50;99.90;;;;;;5007105;28;20218;-87
2022/09/12 00:19:27;;;;;;;19.05;14.25;;;12.10;99.90;;;;;;5005621;28;20229;-87
2022/09/12 00:21:52;;;;;;;19.60;14.23;;;11.90;99.90;;;;;;5006008;28;20210;-87
2022/09/12 00:24:18;;;;;;;18.20;14.43;;;11.40;99.90;;;;;;5005216;28;20220;-87
2022/09/12 00:26:44;;;;;;;18.13;14.40;;;11.80;99.90;;;;;;5006712;28;20634;-88
2022/09/12 00:29:15;;;;;;;16.63;14.40;;;12.30;99.90;;;;;;5005483;28;20184;-87
2022/09/12 00:31:41;;;;;;;19.07;15.10;;;11.50;99.90;;;;;;5005330;28;20203;-87
2022/09/12 00:34:07;;;;;;;21.40;15.00;;;11.10;99.90;;;;;;5006274;28;20653;-87
2022/09/12 00:36:33;;;;;;;20.90;16.30;;;11.60;99.90;;;;;;5003748;28;20187;-88
2022/09/12 00:38:59;;;;;;;22.03;16.40;;;11.20;99.90;;;;;;5005283;28;20258;-87
2022/09/12 00:41:28;;;;;;;23.83;16.70;;;11.60;99.90;;;;;;5006571;28;20187;-87
2022/09/12 00:43:57;;;;;;;21.53;16.03;;;11.60;99.90;;;;;;5005351;28;20203;-87
2022/09/12 00:46:43;;;;;;;19.60;16.53;;;11.40;99.90;;;;;;5005277;28;21094;-88
2022/09/12 00:49:22;;;;;;;20.37;15.93;;;11.20;99.90;;;;;;5020893;28;20190;-88
2022/09/12 00:51:55;;;;;;;21.50;16.70;;;11.20;99.90;;;;;;5005280;28;20685;-87
2022/09/12 00:54:26;;;;;;;20.43;16.37;;;11.10;99.90;;;;;;5005035;28;20192;-87
2022/09/12 00:56:54;;;;;;;23.23;17.43;;;11.20;99.90;;;;;;5005496;28;20310;-87
2022/09/12 00:59:26;;;;;;;23.63;17.07;;;10.70;99.90;;;;;;5006955;28;20179;-87
2022/09/12 01:01:52;;;;;;;24.17;18.10;;;11.20;99.90;;;;;;5005168;28;20242;-87
2022/09/12 01:04:20;;;;;;;26.23;18.30;;;11.00;99.90;;;;;;5005225;28;20215;-87
2022/09/12 01:06:48;;;;;;;25.27;18.43;;;10.90;99.90;;;;;;5006396;28;20183;-86
2022/09/12 01:09:17;;;;;;;23.13;17.73;;;10.90;99.90;;;;;;5005013;28;20187;-87
2022/09/12 01:11:45;;;;;;;22.67;17.27;;;11.00;99.90;;;;;;5021157;28;20579;-88
2022/09/12 01:14:12;;;;;;;25.97;18.23;;;10.80;99.90;;;;;;5004598;28;20187;-88
2022/09/12 01:16:38;;;;;;;23.60;17.93;;;11.10;99.90;;;;;;5006350;28;20184;-87
2022/09/12 01:19:35;;;;;;;23.20;18.17;;;11.20;99.90;;;;;;5004960;28;20358;-88
2022/09/12 01:22:32;;;;;;;23.60;18.97;;;10.80;99.90;;;;;;5005902;28;20688;-87
2022/09/12 01:25:25;;;;;;;24.40;18.10;;;11.00;99.90;;;;;;5004891;28;20267;-87
2022/09/12 01:28:11;;;;;;;25.20;17.57;;;11.10;99.90;;;;;;5005010;28;20182;-87
2022/09/12 01:30:53;;;;;;;24.27;17.23;;;11.10;99.90;;;;;;4985076;28;20214;-87
2022/09/12 01:33:41;;;;;;;23.10;17.73;;;10.80;99.90;;;;;;5007736;28;20183;-90
2022/09/12 01:36:28;;;;;;;22.03;16.43;;;10.70;99.90;;;;;;5008021;28;20619;-88
2022/09/12 01:39:04;;;;;;;19.90;15.03;;;10.70;99.90;;;;;;5008404;28;20278;-89
2022/09/12 01:41:53;;;;;;;22.77;16.40;;;10.70;99.90;;;;;;5008371;28;20179;-88
2022/09/12 01:44:30;;;;;;;20.03;15.40;;;10.70;99.90;;;;;;5007955;28;20211;-88
2022/09/12 01:47:14;;;;;;;18.90;15.50;;;10.70;99.90;;;;;;5007572;28;20179;-89
2022/09/12 01:49:56;;;;;;;18.93;15.17;;;10.60;99.90;;;;;;5010852;28;20692;-88
2022/09/12 01:52:33;;;;;;;18.73;14.53;;;10.50;99.90;;;;;;5008269;28;20199;-87
2022/09/12 01:55:30;;;;;;;20.17;15.53;;;10.40;99.90;;;;;;5008239;28;20765;-87
2022/09/12 01:58:04;;;;;;;18.97;15.03;;;10.40;99.90;;;;;;5008637;28;20542;-87
2022/09/12 02:00:34;;;;;;;20.07;14.93;;;10.30;99.90;;;;;;5007901;28;20290;-86
2022/09/12 02:03:24;;;;;;;16.33;13.57;;;10.30;99.90;;;;;;5024478;28;21093;-87
2022/09/12 02:05:54;;;;;;;17.27;14.30;;;10.30;99.90;;;;;;5007591;28;20211;-88
2022/09/12 02:08:26;;;;;;;24.90;14.70;;;10.40;99.90;;;;;;5008038;28;20532;-87
2022/09/12 02:10:56;;;;;;;17.00;13.67;;;10.50;99.90;;;;;;5009326;28;20186;-87
2022/09/12 02:13:54;;;;;;;16.37;13.43;;;10.60;99.90;;;;;;5008083;28;20188;-87
2022/09/12 02:16:43;;;;;;;16.00;13.27;;;10.60;99.90;;;;;;4992635;28;20222;-87
2022/09/12 02:19:19;;;;;;;18.23;14.80;;;10.60;99.90;;;;;;5007617;28;20188;-87
2022/09/12 02:21:50;;;;;;;18.20;14.73;;;10.60;99.90;;;;;;5007831;28;20244;-86
2022/09/12 02:24:17;;;;;;;20.63;15.33;;;10.50;99.90;;;;;;5007488;28;20204;-87
2022/09/12 02:26:49;;;;;;;21.10;15.67;;;10.50;99.90;;;;;;5008850;28;20266;-87
2022/09/12 02:29:16;;;;;;;20.17;16.57;;;10.40;99.90;;;;;;5007947;28;20629;-87
2022/09/12 02:31:53;;;;;;;23.90;16.03;;;10.40;99.90;;;;;;5007114;28;20631;-86
2022/09/12 02:34:38;;;;;;;20.43;15.53;;;10.40;99.90;;;;;;5007367;28;20262;-87
2022/09/12 02:37:26;;;;;;;20.17;15.97;;;10.30;99.90;;;;;;5008814;28;20172;-87
2022/09/12 02:39:54;;;;;;;19.80;15.30;;;10.40;99.90;;;;;;5007232;28;20191;-88
2022/09/12 02:42:21;;;;;;;21.40;16.97;;;10.30;99.90;;;;;;5007224;28;20692;-87
2022/09/12 02:44:47;;;;;;;20.87;14.87;;;10.30;99.90;;;;;;5006896;28;20219;-87
2022/09/12 02:47:23;;;;;;;18.47;14.60;;;10.30;99.90;;;;;;5007174;28;20297;-88
2022/09/12 02:49:49;;;;;;;16.70;13.87;;;10.20;99.90;;;;;;5023965;28;21098;-87
2022/09/12 02:52:15;;;;;;;18.53;15.57;;;10.00;99.90;;;;;;5008449;28;20182;-87
2022/09/12 02:54:41;;;;;;;20.63;15.50;;;10.00;99.90;;;;;;5006980;28;20203;-87
2022/09/12 02:57:16;;;;;;;20.10;15.73;;;10.00;99.90;;;;;;5008398;28;20246;-87
2022/09/12 02:59:41;;;;;;;18.20;14.80;;;9.90;99.90;;;;;;5007047;28;20264;-87
2022/09/12 03:02:29;;;;;;;17.30;14.37;;;9.80;99.90;;;;;;5007029;28;20921;-87
2022/09/12 03:05:04;;;;;;;18.87;13.77;;;9.70;99.90;;;;;;5006132;28;20211;-87
2022/09/12 03:08:03;;;;;;;14.70;12.30;;;9.70;99.90;;;;;;5007155;28;20559;-87
2022/09/12 03:10:39;;;;;;;12.50;11.17;;;9.70;99.90;;;;;;5007948;28;20533;-87
2022/09/12 03:13:34;;;;;;;15.93;12.63;;;9.80;99.90;;;;;;5006755;28;20548;-87
2022/09/12 03:16:05;;;;;;;13.30;11.90;;;9.80;99.90;;;;;;4981742;28;20682;-86
2022/09/12 03:18:33;;;;;;;13.50;12.10;;;9.80;99.90;;;;;;5006639;28;20176;-87
2022/09/12 03:21:06;;;;;;;13.83;12.13;;;9.70;99.90;;;;;;5005821;28;20207;-87
2022/09/12 03:24:00;;;;;;;17.73;13.60;;;9.70;99.90;;;;;;5004047;28;20298;-87
2022/09/12 03:26:38;;;;;;;17.83;13.30;;;9.60;99.90;;;;;;5006333;28;20210;-87
2022/09/12 03:29:06;;;;;;;18.30;13.87;;;9.60;99.90;;;;;;5006272;28;20186;-86
2022/09/12 03:31:32;;;;;;;14.80;12.00;;;9.70;99.90;;;;;;5007482;28;20179;-87
2022/09/12 03:33:59;;;;;;;15.90;12.83;;;9.60;99.90;;;;;;5006254;28;20184;-87
2022/09/12 03:36:27;;;;;;;15.60;12.90;;;9.80;99.90;;;;;;5005999;28;20269;-87
2022/09/12 03:38:53;;;;;;;16.57;13.60;;;9.70;99.90;;;;;;5008278;28;20183;-86
2022/09/12 03:41:19;;;;;;;15.50;12.73;;;9.70;99.90;;;;;;5007728;28;20715;-86
2022/09/12 03:43:45;;;;;;;16.57;12.97;;;9.70;99.90;;;;;;5006768;28;20211;-87
2022/09/12 03:46:12;;;;;;;17.27;12.53;;;9.60;99.90;;;;;;5005175;28;20306;-87
2022/09/12 03:48:38;;;;;;;15.90;13.13;;;9.70;99.90;;;;;;5005710;28;20211;-86
2022/09/12 03:51:06;;;;;;;14.50;12.90;;;9.80;99.90;;;;;;5005864;28;20184;-87
2022/09/12 03:53:32;;;;;;;16.13;12.53;;;9.90;99.90;;;;;;5007180;28;20179;-86
2022/09/12 03:55:58;;;;;;;15.87;12.20;;;9.80;99.90;;;;;;5004947;28;20298;-86
2022/09/12 03:58:28;;;;;;;14.70;12.40;;;9.90;99.90;;;;;;5005600;28;20238;-86
2022/09/12 04:00:54;;;;;;;18.43;13.20;;;9.80;99.90;;;;;;5005903;28;20180;-86
2022/09/12 04:03:19;;;;;;;15.77;12.43;;;9.80;99.90;;;;;;5005796;28;20199;-87
2022/09/12 04:05:46;;;;;;;16.60;13.27;;;9.70;99.90;;;;;;5005579;28;20306;-86
2022/09/12 04:08:12;;;;;;;18.83;14.27;;;9.70;99.90;;;;;;5005450;28;20185;-87
2022/09/12 04:10:37;;;;;;;17.43;13.47;;;9.70;99.90;;;;;;5005610;28;20992;-87
2022/09/12 04:13:03;;;;;;;18.23;13.73;;;9.60;99.90;;;;;;5005721;28;20183;-87
2022/09/12 04:15:28;;;;;;;16.13;13.43;;;9.60;99.90;;;;;;5005397;28;20276;-86
2022/09/12 04:17:54;;;;;;;17.27;13.97;;;9.70;99.90;;;;;;5007112;28;20183;-86
2022/09/12 04:20:19;;;;;;;20.83;15.07;;;9.70;99.90;;;;;;5005746;28;20294;-87
2022/09/12 04:22:45;;;;;;;18.33;13.87;;;9.60;99.90;;;;;;5005485;28;20232;-86
2022/09/12 04:25:12;;;;;;;19.40;14.63;;;9.60;99.90;;;;;;5004766;28;20316;-87
2022/09/12 04:27:37;;;;;;;18.70;14.53;;;9.60;99.90;;;;;;5005574;28;20241;-87
2022/09/12 04:30:03;;;;;;;20.20;14.27;;;9.60;99.90;;;;;;5005562;28;20188;-87
2022/09/12 04:32:30;;;;;;;17.73;14.60;;;9.60;99.90;;;;;;5005308;28;20191;-87
2022/09/12 04:34:56;;;;;;;18.17;14.90;;;9.60;99.90;;;;;;5004583;28;20206;-87
2022/09/12 04:37:23;;;;;;;20.50;14.57;;;9.60;99.90;;;;;;5004422;28;20199;-86
2022/09/12 04:39:48;;;;;;;20.37;13.67;;;9.50;99.90;;;;;;5004009;28;20191;-87
2022/09/12 04:42:15;;;;;;;18.57;14.27;;;9.40;99.90;;;;;;5006275;28;20282;-87
2022/09/12 04:44:41;;;;;;;17.53;12.87;;;9.30;99.90;;;;;;5006103;28;20215;-86
2022/09/12 04:47:06;;;;;;;17.47;14.37;;;9.40;99.90;;;;;;5003526;28;20225;-86
2022/09/12 04:49:32;;;;;;;18.77;13.47;;;9.40;99.90;;;;;;5005194;28;20550;-87
2022/09/12 04:51:58;;;;;;;16.30;13.13;;;9.40;99.90;;;;;;5005244;28;20295;-87
2022/09/12 04:54:24;;;;;;;18.93;13.30;;;9.40;99.90;;;;;;5004508;28;20267;-86
2022/09/12 04:56:50;;;;;;;18.97;14.03;;;9.30;99.90;;;;;;5005392;28;20191;-86
2022/09/12 04:59:18;;;;;;;19.40;14.23;;;9.30;99.90;;;;;;5004977;28;20180;-87
2022/09/12 05:01:44;;;;;;;19.40;14.27;;;9.30;99.90;;;;;;5004878;28;20191;-87
2022/09/12 05:04:12;;;;;;;16.20;14.20;;;9.30;99.90;;;;;;5004968;28;20207;-86
2022/09/12 05:06:40;;;;;;;18.00;14.47;;;9.30;99.90;;;;;;5021064;28;20188;-86
2022/09/12 05:09:10;;;;;;;16.37;13.10;;;9.00;99.90;;;;;;5007996;28;20198;-87
2022/09/12 05:11:38;;;;;;;15.63;12.80;;;9.40;99.90;;;;;;5010114;28;20191;-87
2022/09/12 05:14:04;;;;;;;16.83;13.30;;;9.40;99.90;;;;;;5007540;28;20192;-87
2022/09/12 05:16:31;;;;;;;16.73;13.23;;;9.30;99.90;;;;;;5008894;28;20590;-87
2022/09/12 05:18:58;;;;;;;18.80;13.33;;;9.50;99.90;;;;;;5010104;28;20179;-87
2022/09/12 05:21:24;;;;;;;14.13;12.07;;;9.70;99.90;;;;;;5009778;28;20379;-87
2022/09/12 05:23:51;;;;;;;13.50;11.93;;;9.50;99.90;;;;;;5008626;28;20211;-86
2022/09/12 05:26:19;;;;;;;15.77;13.73;;;9.70;99.90;;;;;;5008302;28;20214;-87
2022/09/12 05:28:46;;;;;;;13.33;11.93;;;9.10;99.90;;;;;;5008479;28;20273;-86
2022/09/12 05:31:16;;;;;;;12.93;11.53;;;9.70;99.90;;;;;;5008576;28;20183;-87
2022/09/12 05:33:45;;;;;;;14.20;12.70;;;10.00;99.90;;;;;;5009747;28;20180;-86
2022/09/12 05:36:17;;;;;;;13.50;12.10;;;9.70;99.90;;;;;;5009523;28;20230;-86
2022/09/12 05:38:45;;;;;;;13.60;12.13;;;9.70;99.90;;;;;;5007988;28;20191;-88
2022/09/12 05:41:20;;;;;;;16.77;13.23;;;10.10;99.90;;;;;;5009218;28;20196;-87
2022/09/12 05:43:46;;;;;;;15.43;13.20;;;10.10;99.90;;;;;;5009627;28;20676;-87
2022/09/12 05:46:14;;;;;;;15.60;12.90;;;10.00;99.90;;;;;;5007996;28;20231;-87
2022/09/12 05:48:42;;;;;;;16.17;12.97;;;9.90;99.90;;;;;;5008043;28;20184;-86
2022/09/12 05:51:13;;;;;;;14.77;13.03;;;10.00;99.90;;;;;;5007896;28;20287;-86
2022/09/12 05:53:39;;;;;;;17.67;13.67;;;10.20;99.90;;;;;;5008992;28;20176;-87
2022/09/12 05:56:11;;;;;;;14.33;12.63;;;10.10;99.90;;;;;;5008059;28;20215;-87
2022/09/12 05:58:38;;;;;;;15.13;12.63;;;10.60;99.90;;;;;;5025463;28;20274;-87
2022/09/12 06:01:07;;;;;;;15.27;12.27;;;10.40;99.90;;;;;;5006899;28;21002;-87
2022/09/12 06:03:34;;;;;;;15.53;12.67;;;10.20;99.90;;;;;;5007945;28;20637;-86
2022/09/12 06:06:05;;;;;;;16.20;12.67;;;9.90;99.90;;;;;;5023338;22;20188;-87
2022/09/12 06:08:32;;;;;;;15.63;14.03;;;10.20;99.90;;;;;;5008138;28;20182;-87
2022/09/12 06:11:02;;;;;;;17.90;14.43;;;10.30;99.90;;;;;;5007267;28;20191;-87
2022/09/12 06:13:31;;;;;;;15.93;13.93;;;10.30;99.90;;;;;;5007914;28;20179;-84
2022/09/12 06:16:02;;;;;;;19.40;15.17;;;10.40;99.90;;;;;;5008969;28;20211;-87
2022/09/12 06:18:28;;;;;;;17.90;14.20;;;10.50;99.90;;;;;;5025860;28;20183;-86
2022/09/12 06:20:53;;;;;;;18.13;13.37;;;10.90;99.90;;;;;;5008772;28;20221;-87
2022/09/12 06:23:19;;;;;;;17.77;14.07;;;10.80;99.90;;;;;;5009759;28;20729;-88
2022/09/12 06:25:47;;;;;;;17.43;13.90;;;10.90;99.90;;;;;;5008878;28;20913;-88
2022/09/12 06:28:12;;;;;;;16.63;13.97;;;11.00;99.90;;;;;;5028447;22;20233;-86
2022/09/12 06:30:38;;;;;;;18.43;14.07;;;11.40;99.90;;;;;;5016135;28;20179;-85
2022/09/12 06:33:06;;;;;;;15.00;12.87;;;11.10;99.90;;;;;;5017519;28;20215;-85
2022/09/12 06:35:35;;;;;;;14.53;12.60;;;11.50;99.90;;;;;;5017323;28;20213;-86
2022/09/12 06:38:01;;;;;;;13.57;12.13;;;11.40;99.90;;;;;;5016064;28;20180;-86
2022/09/12 06:40:28;;;;;;;16.20;12.55;;;11.60;99.90;;;;;;5018663;28;20190;-86
2022/09/12 06:42:54;;;;;;;14.63;12.77;;;11.80;99.90;;;;;;5017207;28;20183;-86
2022/09/12 06:45:27;;;;;;;15.70;13.33;;;11.80;99.90;;;;;;5018122;28;20257;-85
2022/09/12 06:47:56;;;;;;;15.40;12.68;;;12.30;99.90;;;;;;5014454;28;20187;-85
2022/09/12 06:50:22;;;;;;;15.18;13.02;;;12.10;99.90;;;;;;5017342;28;20250;-87
2022/09/12 06:52:49;;;;;;;17.67;14.60;;;12.50;99.90;;;;;;5016067;28;20254;-86
2022/09/12 06:55:16;;;;;;;13.90;12.40;;;13.10;99.90;;;;;;5014562;28;20195;-87
2022/09/12 06:57:42;;;;;;;12.85;11.32;;;13.70;99.90;;;;;;5016028;28;21023;-87
2022/09/12 07:00:09;;;;;;;13.57;11.23;;;14.00;99.90;;;;;;5012212;28;20196;-87
2022/09/12 07:02:40;;;;;;;12.25;10.98;;;14.30;99.90;;;;;;5013039;28;20190;-86
2022/09/12 07:05:07;;;;;;;11.70;10.48;;;14.50;99.90;;;;;;5013451;28;20317;-86
2022/09/12 07:07:34;;;;;;;12.85;11.07;;;14.60;99.90;;;;;;5015035;28;20180;-85
2022/09/12 07:10:00;;;;;;;12.32;10.88;;;14.80;99.90;;;;;;5015500;28;20178;-85
2022/09/12 07:12:28;;;;;;;11.57;10.48;;;14.90;99.90;;;;;;5016665;28;20175;-86
2022/09/12 07:14:53;;;;;;;13.38;11.07;;;15.00;99.90;;;;;;5015080;28;21158;-86
2022/09/12 07:17:19;;;;;;;12.52;11.15;;;15.10;99.90;;;;;;5015578;28;20277;-86
2022/09/12 07:19:44;;;;;;;12.93;11.63;;;15.10;99.90;;;;;;5015034;28;20214;-86
2022/09/12 07:22:10;;;;;;;12.95;11.48;;;15.10;99.90;;;;;;5016487;28;20272;-85
2022/09/12 07:24:36;;;;;;;12.32;11.13;;;15.30;99.90;;;;;;5014677;28;20610;-86
2022/09/12 07:27:01;;;;;;;12.13;10.93;;;15.30;99.90;;;;;;5015056;28;20214;-87
2022/09/12 07:29:27;;;;;;;12.50;11.20;;;15.40;99.90;;;;;;5015038;28;20207;-86
2022/09/12 07:31:53;;;;;;;13.25;11.85;;;15.50;99.90;;;;;;5015940;28;20184;-86
2022/09/12 07:34:19;;;;;;;13.02;11.02;;;15.70;99.90;;;;;;5009443;28;20191;-87
2022/09/12 07:36:45;;;;;;;11.55;10.35;;;15.80;99.90;;;;;;5006238;28;20214;-86
2022/09/12 07:39:11;;;;;;;11.93;10.73;;;16.00;99.90;;;;;;5006746;28;20219;-87
2022/09/12 07:41:36;;;;;;;12.15;10.82;;;16.10;99.90;;;;;;5006902;28;20222;-87
2022/09/12 07:44:03;;;;;;;11.63;10.45;;;16.20;99.90;;;;;;5012203;28;20271;-86
2022/09/12 07:46:30;;;;;;;12.70;10.27;;;16.30;99.90;;;;;;5014732;28;20189;-86
2022/09/12 07:48:58;;;;;;;10.88;9.73;;;16.40;99.90;;;;;;5014025;28;20653;-86
2022/09/12 07:51:24;;;;;;;11.73;10.45;;;16.60;99.90;;;;;;5023257;28;20176;-86
2022/09/12 07:53:50;;;;;;;10.02;9.05;;;16.50;99.90;;;;;;5013418;28;20191;-86
2022/09/12 07:56:18;;;;;;;9.88;8.90;;;16.50;99.90;;;;;;5015063;28;20241;-86
2022/09/12 07:58:44;;;;;;;9.50;8.57;;;16.80;99.90;;;;;;5015932;28;20534;-86
2022/09/12 08:01:18;;;;;;;10.02;9.10;;;16.90;99.90;;;;;;5014546;28;20264;-87
2022/09/12 08:03:46;;;;;;;9.73;8.82;;;16.80;99.90;;;;;;5016252;28;20204;-86
2022/09/12 08:06:20;;;;;;;9.98;8.95;;;16.80;99.90;;;;;;5012671;28;20198;-86
2022/09/12 08:08:46;;;;;;;10.15;9.07;;;17.00;99.90;;;;;;5022644;28;20206;-85
2022/09/12 08:11:14;;;;;;;9.73;8.73;;;17.00;99.90;;;;;;5015411;28;20233;-87
2022/09/12 08:13:42;;;;;;;8.75;7.85;;;17.30;99.90;;;;;;5015170;28;20175;-87
2022/09/12 08:16:15;;;;;;;10.70;9.45;;;17.00;99.90;;;;;;5015182;28;20502;-86
2022/09/12 08:18:41;;;;;;;10.13;8.98;;;16.90;99.90;;;;;;5015157;28;20247;-85
2022/09/12 08:21:13;;;;;;;10.80;8.48;;;17.10;99.90;;;;;;5015518;28;20274;-87
2022/09/12 08:23:38;;;;;;;9.50;8.48;;;17.00;99.90;;;;;;5022279;28;20199;-87
2022/09/12 08:26:05;;;;;;;9.77;8.88;;;17.20;99.90;;;;;;5011988;28;20206;-88
2022/09/12 08:28:33;;;;;;;9.27;8.32;;;17.40;99.90;;;;;;5012895;28;20213;-85
2022/09/12 08:31:06;;;;;;;9.73;8.73;;;17.40;99.90;;;;;;5014141;28;20189;-87
2022/09/12 08:33:32;;;;;;;9.43;8.50;;;17.50;99.90;;;;;;5012853;28;20179;-88
2022/09/12 08:36:13;;;;;;;9.25;7.65;;;17.50;99.90;;;;;;5012700;28;21022;-86
2022/09/12 08:38:41;;;;;;;8.50;7.60;;;17.60;99.90;;;;;;5013528;28;20183;-85
2022/09/12 08:41:29;;;;;;;8.30;7.50;;;17.70;99.90;;;;;;5010953;28;20274;-87
2022/09/12 08:44:16;;;;;;;8.13;7.30;;;17.80;99.90;;;;;;5013774;28;20215;-85
2022/09/12 08:46:53;;;;;;;8.38;7.55;;;17.80;99.90;;;;;;5017684;28;20183;-86
2022/09/12 08:49:34;;;;;;;9.55;8.27;;;17.90;99.90;;;;;;5016532;28;20561;-88
2022/09/12 08:52:06;;;;;;;8.15;7.45;;;18.00;99.90;;;;;;5025835;28;20194;-86
2022/09/12 08:54:32;;;;;;;8.23;7.43;;;18.10;99.90;;;;;;5017844;28;20209;-87
2022/09/12 08:57:03;;;;;;;9.65;7.45;;;18.20;96.00;;;;;;5020041;28;20806;-87
2022/09/12 08:59:41;;;;;;;7.78;6.97;;;18.20;78.10;;;;;;5018048;28;20312;-88
2022/09/12 09:02:42;;;;;;;6.82;6.22;;;18.30;66.90;;;;;;5016932;28;20302;-87
2022/09/12 09:05:23;;;;;;;8.07;6.18;;;18.30;60.30;;;;;;5017731;28;20237;-89
2022/09/12 09:07:51;;;;;;;6.93;6.15;;;18.30;52.40;;;;;;5018435;28;20637;-86
2022/09/12 09:10:29;;;;;;;7.00;6.30;;;18.40;53.90;;;;;;5017199;28;20266;-87
2022/09/12 09:14:46;;;;;;;8.68;7.15;;;18.50;37.50;;;;;;5016477;28;20178;-86
2022/09/12 09:16:10;;;;;;;7.43;6.30;;;18.50;26.40;;;;;;5018434;28;20211;-89
2022/09/12 09:18:37;;;;;;;7.03;6.32;;;18.50;44.90;;;;;;5017331;28;20257;-87
2022/09/12 09:21:21;;;;;;;6.90;6.20;;;18.70;26.40;;;;;;5015904;28;20215;-87
2022/09/12 09:23:52;;;;;;;7.50;6.70;;;18.70;18.20;;;;;;5005904;28;20242;-86
2022/09/12 09:26:28;;;;;;;7.43;6.60;;;18.70;20.10;;;;;;5002677;28;20252;-88
2022/09/12 09:28:59;;;;;;;6.53;5.75;;;18.80;1.00;;;;;;5003076;28;20194;-86
2022/09/12 09:31:31;;;;;;;6.35;5.75;;;18.90;1.00;;;;;;5017504;28;20556;-88
2022/09/12 09:33:57;;;;;;;6.45;5.85;;;18.80;1.00;;;;;;5019253;28;20266;-88
2022/09/12 09:36:57;;;;;;;7.35;5.95;;;19.00;1.00;;;;;;5019383;28;20756;-88
2022/09/12 09:39:35;;;;;;;6.20;5.60;;;19.10;1.00;;;;;;5017063;28;20179;-89
2022/09/12 09:42:14;;;;;;;6.70;6.00;;;19.20;1.00;;;;;;5025831;28;20186;-88
2022/09/12 09:44:40;;;;;;;7.72;6.03;;;19.40;1.00;;;;;;5016169;28;20211;-89
2022/09/12 09:47:09;;;;;;;5.63;5.07;;;19.40;1.00;;;;;;5016655;28;20179;-88
2022/09/12 09:49:35;;;;;;;5.75;5.03;;;19.20;1.00;;;;;;5016934;28;20179;-90
2022/09/12 09:52:01;;;;;;;5.57;5.07;;;19.60;1.00;;;;;;5016850;28;20201;-87
2022/09/12 09:54:39;;;;;;;6.60;4.88;;;19.70;1.00;;;;;;5014064;28;20705;-89
2022/09/12 09:57:34;;;;;;;5.13;4.63;;;19.70;1.00;;;;;;5014949;28;20198;-89
2022/09/12 10:00:26;;;;;;;5.15;4.25;;;19.80;1.00;;;;;;5014217;28;20187;-89
2022/09/12 10:03:03;;;;;;;5.38;4.75;;;20.10;1.00;;;;;;5019257;28;20332;-88
2022/09/12 10:05:31;;;;;;;4.45;4.05;;;20.30;99.90;;;;;;5015672;28;21100;-89
2022/09/12 10:07:59;;;;;;;4.55;4.15;;;20.40;1.00;;;;;;5015290;28;20645;-87
2022/09/12 10:10:31;;;;;;;3.90;3.50;;;20.40;99.90;;;;;;5021608;28;20187;-86
2022/09/12 10:13:24;;;;;;;4.70;2.97;;;20.40;1.00;;;;;;5018401;28;20183;-89
2022/09/12 10:16:00;;;;;;;3.85;3.00;;;20.60;1.00;;;;;;5019785;28;20210;-87
2022/09/12 10:18:39;;;;;;;4.53;3.67;;;20.50;1.00;;;;;;5017736;28;20179;-91
2022/09/12 10:21:15;;;;;;;3.33;3.03;;;20.40;99.90;;;;;;5021121;28;20752;-87
2022/09/12 10:23:42;;;;;;;7.20;3.03;;;20.70;1.00;;;;;;5019648;28;20294;-88
2022/09/12 10:26:13;;;;;;;2.80;2.60;;;20.80;1.00;;;;;;5019708;28;20199;-87
2022/09/12 10:28:48;;;;;;;3.83;2.63;;;20.90;1.00;;;;;;5017230;28;20654;-86
2022/09/12 10:31:16;;;;;;;4.00;2.33;;;20.80;1.00;;;;;;5018169;28;20176;-86
2022/09/12 10:34:04;;;;;;;2.67;1.85;;;20.40;84.50;;;;;;5016532;28;20182;-87
2022/09/12 10:36:42;;;;;;;2.35;1.67;;;20.40;99.90;;;;;;5019213;28;20190;-86
2022/09/12 10:39:17;;;;;;;2.17;1.95;;;20.60;91.70;;;;;;5019335;28;20202;-87
2022/09/12 10:41:44;;;;;;;2.50;2.13;;;20.80;1.00;;;;;;5016607;28;20179;-87
2022/09/12 10:44:24;;;;;;;1.95;1.67;;;20.90;1.00;;;;;;5017054;28;20245;-86
2022/09/12 10:46:54;;;;;;;1.80;1.48;;;20.80;1.00;;;;;;5015373;28;20191;-86
2022/09/12 10:49:38;;;;;;;1.77;1.63;;;21.00;99.90;;;;;;5017686;28;20489;-88
2022/09/12 10:52:23;;;;;;;1.88;1.77;;;21.30;99.90;;;;;;5015711;28;20302;-87
2022/09/12 10:55:04;;;;;;;2.83;1.92;;;21.60;99.90;;;;;;5017634;28;20695;-87
2022/09/12 10:58:07;;;;;;;1.98;1.67;;;21.70;99.90;;;;;;5025214;28;20186;-89
2022/09/12 11:00:39;;;;;;;1.98;1.80;;;21.90;1.00;;;;;;5003416;28;20198;-87
2022/09/12 11:03:43;;;;;;;1.80;1.60;;;22.00;99.90;;;;;;5017884;28;20179;-87
2022/09/12 11:06:26;;;;;;;2.00;1.80;;;22.20;1.00;;;;;;5014672;28;20205;-87
2022/09/12 11:09:10;;;;;;;2.60;2.40;;;22.20;99.90;;;;;;5014808;28;20203;-87
2022/09/12 11:11:55;;;;;;;2.28;1.80;;;22.00;1.00;;;;;;5017115;28;20482;-87
2022/09/12 11:14:54;;;;;;;2.17;1.83;;;21.80;1.00;;;;;;5015540;28;20175;-88
2022/09/12 11:17:39;;;;;;;1.88;1.73;;;22.00;99.90;;;;;;5015571;28;20193;-88
2022/09/12 11:20:12;;;;;;;3.55;3.25;;;22.00;1.00;;;;;;5014598;28;20194;-87
2022/09/12 11:23:16;;;;;;;2.97;2.17;;;22.10;1.00;;;;;;5016509;28;20186;-87
2022/09/12 11:25:54;;;;;;;3.33;2.20;;;22.00;1.00;;;;;;4988781;28;20331;-88
2022/09/12 11:28:40;;;;;;;3.17;2.35;;;22.00;99.90;;;;;;5012429;28;20201;-88
2022/09/12 11:31:30;;;;;;;3.08;2.50;;;22.20;1.00;;;;;;5015316;28;20279;-89
2022/09/12 11:34:01;;;;;;;3.63;2.70;;;22.30;99.90;;;;;;5015441;28;20182;-87
2022/09/12 11:36:41;;;;;;;2.97;2.67;;;22.50;1.00;;;;;;5024822;28;20210;-89
2022/09/12 11:39:20;;;;;;;2.58;2.15;;;22.30;1.00;;;;;;5014777;28;20287;-88
2022/09/12 11:41:59;;;;;;;2.42;2.22;;;22.10;1.00;;;;;;5015193;28;20183;-88
2022/09/12 11:44:44;;;;;;;2.35;2.05;;;22.10;97.90;;;;;;5014698;28;20199;-89
2022/09/12 11:47:12;;;;;;;2.30;1.70;;;22.20;99.90;;;;;;5016749;28;20743;-88
2022/09/12 11:49:48;;;;;;;2.20;2.00;;;22.40;1.00;;;;;;5015455;28;20183;-88
2022/09/12 11:52:28;;;;;;;2.00;1.83;;;22.60;99.90;;;;;;5015497;28;20203;-88
2022/09/12 11:54:59;;;;;;;2.88;1.83;;;22.60;11.10;;;;;;5014124;28;20217;-89
2022/09/12 11:57:43;;;;;;;2.65;1.92;;;22.60;1.00;;;;;;5014026;28;20180;-89
2022/09/12 12:00:19;;;;;;;2.92;2.05;;;22.70;1.00;;;;;;5013858;28;20194;-88
2022/09/12 12:02:47;;;;;;;1.90;1.80;;;22.60;1.00;;;;;;5014381;28;20175;-88
2022/09/12 12:05:48;;;;;;;2.10;1.90;;;22.70;1.00;;;;;;5013326;28;20222;-89
2022/09/12 12:08:14;;;;;;;2.55;2.35;;;22.80;1.00;;;;;;5015953;28;20233;-88
2022/09/12 12:10:58;;;;;;;2.10;1.98;;;22.60;1.00;;;;;;5012530;28;20638;-88
2022/09/12 12:13:38;;;;;;;2.40;1.58;;;22.70;1.00;;;;;;5016816;28;20190;-88
2022/09/12 12:16:07;;;;;;;2.75;2.13;;;22.70;1.00;;;;;;5014760;28;20207;-89
2022/09/12 12:18:37;;;;;;;2.38;1.90;;;22.70;99.90;;;;;;5010788;28;20180;-87
2022/09/12 12:21:28;;;;;;;2.10;1.88;;;22.70;99.90;;;;;;5005343;28;20187;-88
2022/09/12 12:24:17;;;;;;;1.92;1.63;;;22.50;99.90;;;;;;5006814;28;20334;-88
2022/09/12 12:26:44;;;;;;;2.15;1.90;;;22.50;99.90;;;;;;5009810;28;20190;-89
2022/09/12 12:29:22;;;;;;;1.73;1.63;;;22.60;1.00;;;;;;5014811;28;20283;-88
2022/09/12 12:32:03;;;;;;;1.70;1.60;;;22.70;1.00;;;;;;5010809;28;20189;-88
2022/09/12 12:34:38;;;;;;;1.63;1.52;;;22.80;99.90;;;;;;5014657;28;20211;-88
2022/09/12 12:37:24;;;;;;;1.60;1.50;;;22.70;1.00;;;;;;5014477;28;20190;-89
2022/09/12 12:39:54;;;;;;;2.03;1.50;;;22.80;99.90;;;;;;5011575;28;20187;-89
2022/09/12 12:42:34;;;;;;;1.88;1.40;;;22.90;99.90;;;;;;5015048;28;20180;-90
2022/09/12 12:45:37;;;;;;;1.50;1.40;;;23.10;99.90;;;;;;5013665;28;20309;-89
2022/09/12 12:48:14;;;;;;;1.50;1.40;;;23.10;7.20;;;;;;5012803;28;20181;-89
2022/09/12 12:50:40;;;;;;;1.10;1.00;;;23.10;1.00;;;;;;5015129;28;20217;-89
2022/09/12 12:53:18;;;;;;;1.25;1.17;;;23.10;1.00;;;;;;5014600;28;20660;-89
2022/09/12 12:55:50;;;;;;;1.10;1.10;;;23.10;1.00;;;;;;5014055;28;20206;-89
2022/09/12 12:58:36;;;;;;;1.52;1.10;;;23.30;1.00;;;;;;5013985;28;20179;-89
2022/09/12 13:01:13;;;;;;;1.38;1.27;;;23.30;1.00;;;;;;5014116;28;20183;-88
2022/09/12 13:04:00;;;;;;;2.17;1.33;;;23.10;1.00;;;;;;5016779;28;20227;-89
2022/09/12 13:06:39;;;;;;;1.67;1.20;;;23.10;1.00;;;;;;5013881;28;20301;-88
2022/09/12 13:09:15;;;;;;;1.25;1.15;;;23.20;1.00;;;;;;5013987;28;20604;-89